sensor_id;sensor_type;location;lat;lon;timestamp;P1;durP1;ratioP1;P2;durP2;ratioP2
3589;SDS011;1809;48.470;9.226;2024-01-07T00:01:29;31.70;;;18.53;;
3589;SDS011;1809;48.470;9.226;2024-01-07T00:03:54;30.20;;;17.33;;
3589;SDS011;1809;48.470;9.226;2024-01-07T00:06:20;35.33;;;18.23;;
3589;SDS011;1809;48.470;9.226;2024-01-07T00:08:45;30.57;;;16.43;;
3589;SDS011;1809;48.470;9.226;2024-01-07T00:11:12;35.03;;;18.50;;
3589;SDS011;1809;48.470;9.226;2024-01-07T00:13:37;35.20;;;18.90;;
3589;SDS011;1809;48.470;9.226;2024-01-07T00:16:03;34.13;;;21.13;;
3589;SDS011;1809;48.470;9.226;2024-01-07T00:18:29;30.70;;;18.40;;
3589;SDS011;1809;48.470;9.226;2024-01-07T00:20:54;42.13;;;19.87;;
3589;SDS011;1809;48.470;9.226;2024-01-07T00:23:20;34.50;;;20.23;;
3589;SDS011;1809;48.470;9.226;2024-01-07T00:25:46;35.03;;;18.17;;
3589;SDS011;1809;48.470;9.226;2024-01-07T00:28:12;29.83;;;17.40;;
3589;SDS011;1809;48.470;9.226;2024-01-07T00:30:37;27.30;;;15.27;;
3589;SDS011;1809;48.470;9.226;2024-01-07T00:33:03;31.30;;;17.50;;
3589;SDS011;1809;48.470;9.226;2024-01-07T00:35:28;36.93;;;19.57;;
3589;SDS011;1809;48.470;9.226;2024-01-07T00:37:54;35.20;;;18.57;;
3589;SDS011;1809;48.470;9.226;2024-01-07T00:40:21;38.57;;;19.30;;
3589;SDS011;1809;48.470;9.226;2024-01-07T00:42:47;32.93;;;16.57;;
3589;SDS011;1809;48.470;9.226;2024-01-07T00:45:13;32.20;;;18.20;;
3589;SDS011;1809;48.470;9.226;2024-01-07T00:47:38;37.63;;;17.27;;
3589;SDS011;1809;48.470;9.226;2024-01-07T00:50:04;35.47;;;17.67;;
3589;SDS011;1809;48.470;9.226;2024-01-07T00:52:29;33.33;;;17.87;;
3589;SDS011;1809;48.470;9.226;2024-01-07T00:54:55;33.77;;;17.97;;
3589;SDS011;1809;48.470;9.226;2024-01-07T00:57:20;42.90;;;20.20;;
3589;SDS011;1809;48.470;9.226;2024-01-07T00:59:45;36.07;;;18.83;;
3589;SDS011;1809;48.470;9.226;2024-01-07T01:02:11;37.60;;;18.10;;
3589;SDS011;1809;48.470;9.226;2024-01-07T01:04:38;33.30;;;18.60;;
3589;SDS011;1809;48.470;9.226;2024-01-07T01:07:05;35.93;;;18.90;;
3589;SDS011;1809;48.470;9.226;2024-01-07T01:09:30;37.47;;;20.50;;
3589;SDS011;1809;48.470;9.226;2024-01-07T01:11:56;33.83;;;18.17;;
3589;SDS011;1809;48.470;9.226;2024-01-07T01:14:21;37.40;;;20.20;;
3589;SDS011;1809;48.470;9.226;2024-01-07T01:16:46;37.10;;;19.20;;
3589;SDS011;1809;48.470;9.226;2024-01-07T01:19:12;35.00;;;18.63;;
3589;SDS011;1809;48.470;9.226;2024-01-07T01:21:37;35.50;;;19.20;;
3589;SDS011;1809;48.470;9.226;2024-01-07T01:24:03;39.73;;;19.80;;
3589;SDS011;1809;48.470;9.226;2024-01-07T01:26:28;34.10;;;18.33;;
3589;SDS011;1809;48.470;9.226;2024-01-07T01:28:53;44.63;;;20.43;;
3589;SDS011;1809;48.470;9.226;2024-01-07T01:31:19;39.73;;;19.60;;
3589;SDS011;1809;48.470;9.226;2024-01-07T01:33:44;38.23;;;20.20;;
3589;SDS011;1809;48.470;9.226;2024-01-07T01:36:10;36.10;;;20.30;;
3589;SDS011;1809;48.470;9.226;2024-01-07T01:38:35;38.47;;;19.43;;
3589;SDS011;1809;48.470;9.226;2024-01-07T01:41:01;43.50;;;19.73;;
3589;SDS011;1809;48.470;9.226;2024-01-07T01:43:27;40.00;;;20.20;;
3589;SDS011;1809;48.470;9.226;2024-01-07T01:45:53;32.90;;;18.17;;
3589;SDS011;1809;48.470;9.226;2024-01-07T01:48:19;38.97;;;20.00;;
3589;SDS011;1809;48.470;9.226;2024-01-07T01:50:46;37.90;;;19.40;;
3589;SDS011;1809;48.470;9.226;2024-01-07T01:53:13;40.57;;;21.33;;
3589;SDS011;1809;48.470;9.226;2024-01-07T01:55:39;36.50;;;20.57;;
3589;SDS011;1809;48.470;9.226;2024-01-07T01:58:05;40.90;;;21.57;;
3589;SDS011;1809;48.470;9.226;2024-01-07T02:00:33;43.10;;;21.30;;
3589;SDS011;1809;48.470;9.226;2024-01-07T02:02:59;40.23;;;20.10;;
3589;SDS011;1809;48.470;9.226;2024-01-07T02:05:25;48.97;;;22.17;;
3589;SDS011;1809;48.470;9.226;2024-01-07T02:07:51;38.80;;;20.70;;
3589;SDS011;1809;48.470;9.226;2024-01-07T02:10:18;38.70;;;20.47;;
3589;SDS011;1809;48.470;9.226;2024-01-07T02:12:43;41.47;;;21.57;;
3589;SDS011;1809;48.470;9.226;2024-01-07T02:15:09;38.60;;;19.40;;
3589;SDS011;1809;48.470;9.226;2024-01-07T02:17:34;36.97;;;18.47;;
3589;SDS011;1809;48.470;9.226;2024-01-07T02:20:00;47.93;;;20.77;;
3589;SDS011;1809;48.470;9.226;2024-01-07T02:22:25;39.47;;;21.23;;
3589;SDS011;1809;48.470;9.226;2024-01-07T02:24:51;43.07;;;23.00;;
3589;SDS011;1809;48.470;9.226;2024-01-07T02:27:16;45.00;;;21.03;;
3589;SDS011;1809;48.470;9.226;2024-01-07T02:29:41;34.90;;;17.87;;
3589;SDS011;1809;48.470;9.226;2024-01-07T02:32:07;41.90;;;21.07;;
3589;SDS011;1809;48.470;9.226;2024-01-07T02:34:32;38.80;;;19.03;;
3589;SDS011;1809;48.470;9.226;2024-01-07T02:36:58;46.53;;;21.50;;
3589;SDS011;1809;48.470;9.226;2024-01-07T02:39:23;41.70;;;20.07;;
3589;SDS011;1809;48.470;9.226;2024-01-07T02:41:49;36.67;;;19.30;;
3589;SDS011;1809;48.470;9.226;2024-01-07T02:44:15;41.60;;;20.00;;
3589;SDS011;1809;48.470;9.226;2024-01-07T02:46:40;36.70;;;20.17;;
3589;SDS011;1809;48.470;9.226;2024-01-07T02:49:05;39.87;;;18.87;;
3589;SDS011;1809;48.470;9.226;2024-01-07T02:51:31;37.50;;;18.03;;
3589;SDS011;1809;48.470;9.226;2024-01-07T02:53:56;41.67;;;19.43;;
3589;SDS011;1809;48.470;9.226;2024-01-07T02:56:22;35.93;;;16.40;;
3589;SDS011;1809;48.470;9.226;2024-01-07T02:58:47;36.93;;;17.03;;
3589;SDS011;1809;48.470;9.226;2024-01-07T03:01:12;30.10;;;16.23;;
3589;SDS011;1809;48.470;9.226;2024-01-07T03:03:38;31.67;;;15.30;;
3589;SDS011;1809;48.470;9.226;2024-01-07T03:06:04;30.60;;;17.10;;
3589;SDS011;1809;48.470;9.226;2024-01-07T03:08:29;31.77;;;16.80;;
3589;SDS011;1809;48.470;9.226;2024-01-07T03:10:55;37.80;;;18.07;;
3589;SDS011;1809;48.470;9.226;2024-01-07T03:13:20;32.63;;;17.20;;
3589;SDS011;1809;48.470;9.226;2024-01-07T03:15:46;33.90;;;16.80;;
3589;SDS011;1809;48.470;9.226;2024-01-07T03:18:11;39.57;;;17.60;;
3589;SDS011;1809;48.470;9.226;2024-01-07T03:20:36;36.23;;;16.50;;
3589;SDS011;1809;48.470;9.226;2024-01-07T03:23:02;30.37;;;15.80;;
3589;SDS011;1809;48.470;9.226;2024-01-07T03:25:27;33.47;;;16.63;;
3589;SDS011;1809;48.470;9.226;2024-01-07T03:27:53;33.20;;;16.37;;
3589;SDS011;1809;48.470;9.226;2024-01-07T03:30:18;33.63;;;17.43;;
3589;SDS011;1809;48.470;9.226;2024-01-07T03:32:44;32.83;;;16.00;;
3589;SDS011;1809;48.470;9.226;2024-01-07T03:35:09;28.90;;;16.07;;
3589;SDS011;1809;48.470;9.226;2024-01-07T03:37:35;35.57;;;16.37;;
3589;SDS011;1809;48.470;9.226;2024-01-07T03:40:01;31.50;;;16.60;;
3589;SDS011;1809;48.470;9.226;2024-01-07T03:42:26;38.23;;;17.40;;
3589;SDS011;1809;48.470;9.226;2024-01-07T03:44:52;42.97;;;17.63;;
3589;SDS011;1809;48.470;9.226;2024-01-07T03:47:17;42.13;;;18.40;;
3589;SDS011;1809;48.470;9.226;2024-01-07T03:49:43;39.57;;;19.10;;
3589;SDS011;1809;48.470;9.226;2024-01-07T03:52:08;37.97;;;17.80;;
3589;SDS011;1809;48.470;9.226;2024-01-07T03:54:34;35.73;;;17.73;;
3589;SDS011;1809;48.470;9.226;2024-01-07T03:56:59;35.73;;;18.43;;
3589;SDS011;1809;48.470;9.226;2024-01-07T03:59:25;36.63;;;17.93;;
3589;SDS011;1809;48.470;9.226;2024-01-07T04:01:55;39.70;;;19.73;;
3589;SDS011;1809;48.470;9.226;2024-01-07T04:04:22;37.73;;;16.80;;
3589;SDS011;1809;48.470;9.226;2024-01-07T04:06:48;37.00;;;18.53;;
3589;SDS011;1809;48.470;9.226;2024-01-07T04:09:13;37.50;;;18.53;;
3589;SDS011;1809;48.470;9.226;2024-01-07T04:11:41;36.90;;;19.77;;
3589;SDS011;1809;48.470;9.226;2024-01-07T04:14:08;33.93;;;18.90;;
3589;SDS011;1809;48.470;9.226;2024-01-07T04:16:34;34.13;;;18.43;;
3589;SDS011;1809;48.470;9.226;2024-01-07T04:18:59;33.43;;;17.87;;
3589;SDS011;1809;48.470;9.226;2024-01-07T04:21:25;33.20;;;17.43;;
3589;SDS011;1809;48.470;9.226;2024-01-07T04:23:50;36.43;;;17.73;;
3589;SDS011;1809;48.470;9.226;2024-01-07T04:26:16;36.13;;;16.40;;
3589;SDS011;1809;48.470;9.226;2024-01-07T04:28:41;29.10;;;16.43;;
3589;SDS011;1809;48.470;9.226;2024-01-07T04:31:08;36.73;;;18.00;;
3589;SDS011;1809;48.470;9.226;2024-01-07T04:33:33;42.63;;;20.90;;
3589;SDS011;1809;48.470;9.226;2024-01-07T04:35:59;37.57;;;19.70;;
3589;SDS011;1809;48.470;9.226;2024-01-07T04:38:26;35.90;;;19.27;;
3589;SDS011;1809;48.470;9.226;2024-01-07T04:40:52;38.33;;;19.00;;
3589;SDS011;1809;48.470;9.226;2024-01-07T04:43:17;34.27;;;17.40;;
3589;SDS011;1809;48.470;9.226;2024-01-07T04:45:43;41.73;;;20.23;;
3589;SDS011;1809;48.470;9.226;2024-01-07T04:48:09;36.73;;;18.97;;
3589;SDS011;1809;48.470;9.226;2024-01-07T04:50:34;29.67;;;17.47;;
3589;SDS011;1809;48.470;9.226;2024-01-07T04:52:59;36.03;;;18.23;;
3589;SDS011;1809;48.470;9.226;2024-01-07T04:55:25;36.20;;;18.60;;
3589;SDS011;1809;48.470;9.226;2024-01-07T04:57:50;33.23;;;17.87;;
3589;SDS011;1809;48.470;9.226;2024-01-07T05:00:16;35.40;;;19.23;;
3589;SDS011;1809;48.470;9.226;2024-01-07T05:02:41;36.33;;;18.47;;
3589;SDS011;1809;48.470;9.226;2024-01-07T05:05:10;37.73;;;19.33;;
3589;SDS011;1809;48.470;9.226;2024-01-07T05:07:35;37.40;;;18.73;;
3589;SDS011;1809;48.470;9.226;2024-01-07T05:10:02;36.27;;;19.30;;
3589;SDS011;1809;48.470;9.226;2024-01-07T05:12:28;36.73;;;19.70;;
3589;SDS011;1809;48.470;9.226;2024-01-07T05:14:53;39.50;;;20.10;;
3589;SDS011;1809;48.470;9.226;2024-01-07T05:17:19;38.20;;;20.07;;
3589;SDS011;1809;48.470;9.226;2024-01-07T05:19:44;45.87;;;21.10;;
3589;SDS011;1809;48.470;9.226;2024-01-07T05:22:10;33.23;;;19.60;;
3589;SDS011;1809;48.470;9.226;2024-01-07T05:24:38;33.60;;;18.30;;
3589;SDS011;1809;48.470;9.226;2024-01-07T05:27:03;35.20;;;18.73;;
3589;SDS011;1809;48.470;9.226;2024-01-07T05:29:29;29.57;;;16.80;;
3589;SDS011;1809;48.470;9.226;2024-01-07T05:31:55;25.27;;;15.17;;
3589;SDS011;1809;48.470;9.226;2024-01-07T05:34:20;30.33;;;16.50;;
3589;SDS011;1809;48.470;9.226;2024-01-07T05:36:45;35.30;;;17.03;;
3589;SDS011;1809;48.470;9.226;2024-01-07T05:39:11;26.03;;;15.50;;
3589;SDS011;1809;48.470;9.226;2024-01-07T05:41:37;29.50;;;16.30;;
3589;SDS011;1809;48.470;9.226;2024-01-07T05:44:05;26.63;;;15.43;;
3589;SDS011;1809;48.470;9.226;2024-01-07T05:46:31;27.97;;;16.00;;
3589;SDS011;1809;48.470;9.226;2024-01-07T05:48:57;31.87;;;17.30;;
3589;SDS011;1809;48.470;9.226;2024-01-07T05:51:22;31.10;;;15.60;;
3589;SDS011;1809;48.470;9.226;2024-01-07T05:53:47;25.97;;;16.50;;
3589;SDS011;1809;48.470;9.226;2024-01-07T05:56:13;32.70;;;16.47;;
3589;SDS011;1809;48.470;9.226;2024-01-07T05:58:38;26.00;;;15.23;;
3589;SDS011;1809;48.470;9.226;2024-01-07T06:01:04;27.03;;;14.33;;
3589;SDS011;1809;48.470;9.226;2024-01-07T06:03:31;31.90;;;16.00;;
3589;SDS011;1809;48.470;9.226;2024-01-07T06:05:57;22.50;;;13.07;;
3589;SDS011;1809;48.470;9.226;2024-01-07T06:08:23;20.77;;;13.33;;
3589;SDS011;1809;48.470;9.226;2024-01-07T06:10:48;22.83;;;12.60;;
3589;SDS011;1809;48.470;9.226;2024-01-07T06:13:13;26.87;;;15.77;;
3589;SDS011;1809;48.470;9.226;2024-01-07T06:15:39;22.80;;;13.93;;
3589;SDS011;1809;48.470;9.226;2024-01-07T06:18:04;22.43;;;13.83;;
3589;SDS011;1809;48.470;9.226;2024-01-07T06:20:30;21.80;;;13.47;;
3589;SDS011;1809;48.470;9.226;2024-01-07T06:22:55;28.03;;;15.53;;
3589;SDS011;1809;48.470;9.226;2024-01-07T06:25:21;26.20;;;14.60;;
3589;SDS011;1809;48.470;9.226;2024-01-07T06:27:46;22.87;;;13.80;;
3589;SDS011;1809;48.470;9.226;2024-01-07T06:30:12;27.13;;;15.80;;
3589;SDS011;1809;48.470;9.226;2024-01-07T06:32:38;26.17;;;15.87;;
3589;SDS011;1809;48.470;9.226;2024-01-07T06:35:04;24.77;;;13.80;;
3589;SDS011;1809;48.470;9.226;2024-01-07T06:37:29;22.83;;;15.00;;
3589;SDS011;1809;48.470;9.226;2024-01-07T06:39:55;26.60;;;16.20;;
3589;SDS011;1809;48.470;9.226;2024-01-07T06:42:24;29.90;;;16.50;;
3589;SDS011;1809;48.470;9.226;2024-01-07T06:44:49;29.90;;;16.37;;
3589;SDS011;1809;48.470;9.226;2024-01-07T06:47:15;23.90;;;14.73;;
3589;SDS011;1809;48.470;9.226;2024-01-07T06:49:41;26.80;;;15.80;;
3589;SDS011;1809;48.470;9.226;2024-01-07T06:52:06;24.37;;;15.87;;
3589;SDS011;1809;48.470;9.226;2024-01-07T06:54:32;28.17;;;16.00;;
3589;SDS011;1809;48.470;9.226;2024-01-07T06:56:58;31.87;;;15.30;;
3589;SDS011;1809;48.470;9.226;2024-01-07T06:59:23;29.47;;;16.10;;
3589;SDS011;1809;48.470;9.226;2024-01-07T07:01:49;25.57;;;16.33;;
3589;SDS011;1809;48.470;9.226;2024-01-07T07:04:14;36.10;;;18.30;;
3589;SDS011;1809;48.470;9.226;2024-01-07T07:06:39;29.87;;;16.40;;
3589;SDS011;1809;48.470;9.226;2024-01-07T07:09:05;27.50;;;15.40;;
3589;SDS011;1809;48.470;9.226;2024-01-07T07:11:31;29.53;;;16.60;;
3589;SDS011;1809;48.470;9.226;2024-01-07T07:13:57;29.10;;;15.77;;
3589;SDS011;1809;48.470;9.226;2024-01-07T07:16:22;25.97;;;15.13;;
3589;SDS011;1809;48.470;9.226;2024-01-07T07:18:48;28.80;;;16.57;;
3589;SDS011;1809;48.470;9.226;2024-01-07T07:21:13;25.63;;;16.63;;
3589;SDS011;1809;48.470;9.226;2024-01-07T07:23:39;31.53;;;17.00;;
3589;SDS011;1809;48.470;9.226;2024-01-07T07:26:04;29.17;;;16.03;;
3589;SDS011;1809;48.470;9.226;2024-01-07T07:28:30;25.87;;;16.80;;
3589;SDS011;1809;48.470;9.226;2024-01-07T07:30:55;31.97;;;19.60;;
3589;SDS011;1809;48.470;9.226;2024-01-07T07:33:20;30.00;;;18.37;;
3589;SDS011;1809;48.470;9.226;2024-01-07T07:35:46;28.03;;;17.00;;
3589;SDS011;1809;48.470;9.226;2024-01-07T07:38:11;28.10;;;16.97;;
3589;SDS011;1809;48.470;9.226;2024-01-07T07:40:37;37.10;;;19.37;;
3589;SDS011;1809;48.470;9.226;2024-01-07T07:43:02;36.07;;;19.00;;
3589;SDS011;1809;48.470;9.226;2024-01-07T07:45:28;39.53;;;20.57;;
3589;SDS011;1809;48.470;9.226;2024-01-07T07:47:53;29.70;;;16.93;;
3589;SDS011;1809;48.470;9.226;2024-01-07T07:50:19;28.03;;;17.87;;
3589;SDS011;1809;48.470;9.226;2024-01-07T07:52:44;37.10;;;18.27;;
3589;SDS011;1809;48.470;9.226;2024-01-07T07:55:10;35.43;;;17.17;;
3589;SDS011;1809;48.470;9.226;2024-01-07T07:57:36;34.43;;;19.40;;
3589;SDS011;1809;48.470;9.226;2024-01-07T08:00:03;35.30;;;17.63;;
3589;SDS011;1809;48.470;9.226;2024-01-07T08:02:30;33.33;;;18.87;;
3589;SDS011;1809;48.470;9.226;2024-01-07T08:04:55;31.73;;;19.17;;
3589;SDS011;1809;48.470;9.226;2024-01-07T08:07:20;31.73;;;18.50;;
3589;SDS011;1809;48.470;9.226;2024-01-07T08:09:46;30.03;;;16.90;;
3589;SDS011;1809;48.470;9.226;2024-01-07T08:12:12;30.33;;;17.73;;
3589;SDS011;1809;48.470;9.226;2024-01-07T08:14:37;32.67;;;19.00;;
3589;SDS011;1809;48.470;9.226;2024-01-07T08:17:06;35.20;;;20.67;;
3589;SDS011;1809;48.470;9.226;2024-01-07T08:19:32;35.00;;;18.97;;
3589;SDS011;1809;48.470;9.226;2024-01-07T08:21:58;28.73;;;18.00;;
3589;SDS011;1809;48.470;9.226;2024-01-07T08:24:23;31.67;;;18.93;;
3589;SDS011;1809;48.470;9.226;2024-01-07T08:26:49;36.30;;;20.00;;
3589;SDS011;1809;48.470;9.226;2024-01-07T08:29:14;42.47;;;22.97;;
3589;SDS011;1809;48.470;9.226;2024-01-07T08:31:40;41.67;;;22.50;;
3589;SDS011;1809;48.470;9.226;2024-01-07T08:34:07;48.57;;;24.93;;
3589;SDS011;1809;48.470;9.226;2024-01-07T08:36:32;34.50;;;19.90;;
3589;SDS011;1809;48.470;9.226;2024-01-07T08:38:58;35.03;;;19.10;;
3589;SDS011;1809;48.470;9.226;2024-01-07T08:41:23;36.07;;;20.60;;
3589;SDS011;1809;48.470;9.226;2024-01-07T08:43:49;30.87;;;18.80;;
3589;SDS011;1809;48.470;9.226;2024-01-07T08:46:14;33.23;;;18.80;;
3589;SDS011;1809;48.470;9.226;2024-01-07T08:48:40;32.40;;;17.77;;
3589;SDS011;1809;48.470;9.226;2024-01-07T08:51:05;34.93;;;19.37;;
3589;SDS011;1809;48.470;9.226;2024-01-07T08:53:31;34.37;;;18.10;;
3589;SDS011;1809;48.470;9.226;2024-01-07T08:55:57;29.53;;;17.47;;
3589;SDS011;1809;48.470;9.226;2024-01-07T08:58:22;29.10;;;17.27;;
3589;SDS011;1809;48.470;9.226;2024-01-07T09:00:49;29.10;;;16.80;;
3589;SDS011;1809;48.470;9.226;2024-01-07T09:03:14;27.33;;;14.20;;
3589;SDS011;1809;48.470;9.226;2024-01-07T09:05:40;21.40;;;13.10;;
3589;SDS011;1809;48.470;9.226;2024-01-07T09:08:05;19.97;;;12.20;;
3589;SDS011;1809;48.470;9.226;2024-01-07T09:10:32;22.47;;;13.20;;
3589;SDS011;1809;48.470;9.226;2024-01-07T09:12:58;23.10;;;12.73;;
3589;SDS011;1809;48.470;9.226;2024-01-07T09:15:25;17.60;;;11.93;;
3589;SDS011;1809;48.470;9.226;2024-01-07T09:17:50;18.73;;;11.13;;
3589;SDS011;1809;48.470;9.226;2024-01-07T09:20:16;17.73;;;11.37;;
3589;SDS011;1809;48.470;9.226;2024-01-07T09:22:42;21.37;;;12.87;;
3589;SDS011;1809;48.470;9.226;2024-01-07T09:25:09;17.90;;;11.50;;
3589;SDS011;1809;48.470;9.226;2024-01-07T09:27:35;18.87;;;10.63;;
3589;SDS011;1809;48.470;9.226;2024-01-07T09:30:00;19.80;;;11.37;;
3589;SDS011;1809;48.470;9.226;2024-01-07T09:32:26;24.20;;;12.73;;
3589;SDS011;1809;48.470;9.226;2024-01-07T09:34:51;19.27;;;11.30;;
3589;SDS011;1809;48.470;9.226;2024-01-07T09:37:18;23.07;;;12.17;;
3589;SDS011;1809;48.470;9.226;2024-01-07T09:39:43;30.80;;;14.43;;
3589;SDS011;1809;48.470;9.226;2024-01-07T09:42:14;26.20;;;13.33;;
3589;SDS011;1809;48.470;9.226;2024-01-07T09:44:41;22.67;;;14.03;;
3589;SDS011;1809;48.470;9.226;2024-01-07T09:47:10;21.83;;;13.17;;
3589;SDS011;1809;48.470;9.226;2024-01-07T09:49:36;30.70;;;13.50;;
3589;SDS011;1809;48.470;9.226;2024-01-07T09:52:03;18.33;;;11.20;;
3589;SDS011;1809;48.470;9.226;2024-01-07T09:54:30;17.20;;;10.53;;
3589;SDS011;1809;48.470;9.226;2024-01-07T09:57:06;19.33;;;11.47;;
3589;SDS011;1809;48.470;9.226;2024-01-07T09:59:33;17.83;;;10.73;;
3589;SDS011;1809;48.470;9.226;2024-01-07T10:01:59;23.70;;;11.40;;
3589;SDS011;1809;48.470;9.226;2024-01-07T10:04:25;17.07;;;10.77;;
3589;SDS011;1809;48.470;9.226;2024-01-07T10:06:58;12.87;;;8.93;;
3589;SDS011;1809;48.470;9.226;2024-01-07T10:09:24;14.40;;;9.53;;
3589;SDS011;1809;48.470;9.226;2024-01-07T10:11:52;22.63;;;11.10;;
3589;SDS011;1809;48.470;9.226;2024-01-07T10:14:18;22.27;;;10.83;;
3589;SDS011;1809;48.470;9.226;2024-01-07T10:16:47;21.73;;;11.33;;
3589;SDS011;1809;48.470;9.226;2024-01-07T10:19:18;15.37;;;9.90;;
3589;SDS011;1809;48.470;9.226;2024-01-07T10:21:46;13.77;;;8.70;;
3589;SDS011;1809;48.470;9.226;2024-01-07T10:24:11;17.60;;;9.60;;
3589;SDS011;1809;48.470;9.226;2024-01-07T10:26:38;15.43;;;9.80;;
3589;SDS011;1809;48.470;9.226;2024-01-07T10:29:05;15.37;;;9.60;;
3589;SDS011;1809;48.470;9.226;2024-01-07T10:31:33;11.77;;;8.50;;
3589;SDS011;1809;48.470;9.226;2024-01-07T10:33:59;17.30;;;8.77;;
3589;SDS011;1809;48.470;9.226;2024-01-07T10:36:25;24.30;;;11.43;;
3589;SDS011;1809;48.470;9.226;2024-01-07T10:38:51;15.90;;;10.17;;
3589;SDS011;1809;48.470;9.226;2024-01-07T10:41:18;18.27;;;10.23;;
3589;SDS011;1809;48.470;9.226;2024-01-07T10:43:45;17.07;;;9.80;;
3589;SDS011;1809;48.470;9.226;2024-01-07T10:46:12;13.80;;;8.47;;
3589;SDS011;1809;48.470;9.226;2024-01-07T10:48:39;16.30;;;8.23;;
3589;SDS011;1809;48.470;9.226;2024-01-07T10:51:16;13.37;;;8.27;;
3589;SDS011;1809;48.470;9.226;2024-01-07T10:53:44;11.90;;;7.83;;
3589;SDS011;1809;48.470;9.226;2024-01-07T10:56:12;11.23;;;7.37;;
3589;SDS011;1809;48.470;9.226;2024-01-07T10:58:40;13.30;;;8.33;;
3589;SDS011;1809;48.470;9.226;2024-01-07T11:01:07;17.40;;;9.00;;
3589;SDS011;1809;48.470;9.226;2024-01-07T11:03:38;15.20;;;9.30;;
3589;SDS011;1809;48.470;9.226;2024-01-07T11:06:19;13.27;;;7.77;;
3589;SDS011;1809;48.470;9.226;2024-01-07T11:09:23;14.10;;;8.53;;
3589;SDS011;1809;48.470;9.226;2024-01-07T11:11:58;13.83;;;8.70;;
3589;SDS011;1809;48.470;9.226;2024-01-07T11:20:22;12.73;;;7.70;;
3589;SDS011;1809;48.470;9.226;2024-01-07T11:22:51;16.27;;;9.40;;
3589;SDS011;1809;48.470;9.226;2024-01-07T11:28:15;15.17;;;8.70;;
3589;SDS011;1809;48.470;9.226;2024-01-07T11:30:41;15.23;;;8.87;;
3589;SDS011;1809;48.470;9.226;2024-01-07T11:33:07;15.00;;;9.60;;
3589;SDS011;1809;48.470;9.226;2024-01-07T11:35:53;15.43;;;9.90;;
3589;SDS011;1809;48.470;9.226;2024-01-07T11:38:21;17.50;;;9.60;;
3589;SDS011;1809;48.470;9.226;2024-01-07T11:40:47;15.63;;;9.57;;
3589;SDS011;1809;48.470;9.226;2024-01-07T11:43:15;13.80;;;9.27;;
3589;SDS011;1809;48.470;9.226;2024-01-07T11:45:40;20.73;;;10.53;;
3589;SDS011;1809;48.470;9.226;2024-01-07T11:48:06;16.13;;;10.20;;
3589;SDS011;1809;48.470;9.226;2024-01-07T11:50:32;16.47;;;9.83;;
3589;SDS011;1809;48.470;9.226;2024-01-07T11:52:57;16.07;;;10.17;;
3589;SDS011;1809;48.470;9.226;2024-01-07T11:55:23;19.00;;;10.40;;
3589;SDS011;1809;48.470;9.226;2024-01-07T11:57:51;14.73;;;8.57;;
3589;SDS011;1809;48.470;9.226;2024-01-07T12:00:17;20.37;;;9.53;;
3589;SDS011;1809;48.470;9.226;2024-01-07T12:02:43;19.33;;;10.43;;
3589;SDS011;1809;48.470;9.226;2024-01-07T12:05:08;18.50;;;11.17;;
3589;SDS011;1809;48.470;9.226;2024-01-07T12:07:34;15.00;;;9.20;;
3589;SDS011;1809;48.470;9.226;2024-01-07T12:10:02;21.20;;;11.93;;
3589;SDS011;1809;48.470;9.226;2024-01-07T12:12:27;17.83;;;11.37;;
3589;SDS011;1809;48.470;9.226;2024-01-07T12:14:53;17.90;;;11.27;;
3589;SDS011;1809;48.470;9.226;2024-01-07T12:17:19;20.23;;;12.63;;
3589;SDS011;1809;48.470;9.226;2024-01-07T12:19:45;18.43;;;11.90;;
3589;SDS011;1809;48.470;9.226;2024-01-07T12:22:10;17.37;;;10.37;;
3589;SDS011;1809;48.470;9.226;2024-01-07T12:24:36;15.37;;;9.60;;
3589;SDS011;1809;48.470;9.226;2024-01-07T12:27:04;19.33;;;11.83;;
3589;SDS011;1809;48.470;9.226;2024-01-07T12:29:31;19.13;;;10.20;;
3589;SDS011;1809;48.470;9.226;2024-01-07T12:31:56;13.10;;;8.70;;
3589;SDS011;1809;48.470;9.226;2024-01-07T12:34:21;17.97;;;12.20;;
3589;SDS011;1809;48.470;9.226;2024-01-07T12:36:50;12.00;;;10.17;;
3589;SDS011;1809;48.470;9.226;2024-01-07T12:39:16;19.07;;;10.10;;
3589;SDS011;1809;48.470;9.226;2024-01-07T12:41:43;13.33;;;8.67;;
3589;SDS011;1809;48.470;9.226;2024-01-07T12:44:08;20.20;;;11.07;;
3589;SDS011;1809;48.470;9.226;2024-01-07T12:46:34;11.93;;;8.00;;
3589;SDS011;1809;48.470;9.226;2024-01-07T12:49:00;14.67;;;10.13;;
3589;SDS011;1809;48.470;9.226;2024-01-07T12:51:25;18.47;;;9.77;;
3589;SDS011;1809;48.470;9.226;2024-01-07T12:53:50;18.03;;;10.30;;
3589;SDS011;1809;48.470;9.226;2024-01-07T12:56:16;18.20;;;10.17;;
3589;SDS011;1809;48.470;9.226;2024-01-07T12:58:41;19.80;;;10.60;;
3589;SDS011;1809;48.470;9.226;2024-01-07T13:01:07;16.97;;;10.80;;
3589;SDS011;1809;48.470;9.226;2024-01-07T13:03:33;17.00;;;10.90;;
3589;SDS011;1809;48.470;9.226;2024-01-07T13:05:59;13.13;;;8.70;;
3589;SDS011;1809;48.470;9.226;2024-01-07T13:08:24;10.40;;;7.03;;
3589;SDS011;1809;48.470;9.226;2024-01-07T13:10:52;18.83;;;8.17;;
3589;SDS011;1809;48.470;9.226;2024-01-07T13:13:19;11.67;;;8.70;;
3589;SDS011;1809;48.470;9.226;2024-01-07T13:15:44;19.83;;;8.43;;
3589;SDS011;1809;48.470;9.226;2024-01-07T13:18:10;11.60;;;8.50;;
3589;SDS011;1809;48.470;9.226;2024-01-07T13:20:38;16.93;;;9.90;;
3589;SDS011;1809;48.470;9.226;2024-01-07T13:23:06;17.27;;;9.63;;
3589;SDS011;1809;48.470;9.226;2024-01-07T13:25:32;11.37;;;7.77;;
3589;SDS011;1809;48.470;9.226;2024-01-07T13:27:57;12.90;;;8.97;;
3589;SDS011;1809;48.470;9.226;2024-01-07T13:30:24;18.83;;;10.60;;
3589;SDS011;1809;48.470;9.226;2024-01-07T13:32:49;16.70;;;8.80;;
3589;SDS011;1809;48.470;9.226;2024-01-07T13:35:16;17.47;;;10.93;;
3589;SDS011;1809;48.470;9.226;2024-01-07T13:37:42;18.27;;;10.50;;
3589;SDS011;1809;48.470;9.226;2024-01-07T13:40:08;17.40;;;10.50;;
3589;SDS011;1809;48.470;9.226;2024-01-07T13:42:39;14.87;;;9.17;;
3589;SDS011;1809;48.470;9.226;2024-01-07T13:45:05;17.30;;;10.40;;
3589;SDS011;1809;48.470;9.226;2024-01-07T13:47:30;16.30;;;10.60;;
3589;SDS011;1809;48.470;9.226;2024-01-07T13:49:56;22.60;;;9.80;;
3589;SDS011;1809;48.470;9.226;2024-01-07T13:52:22;18.43;;;9.50;;
3589;SDS011;1809;48.470;9.226;2024-01-07T13:54:47;13.47;;;8.80;;
3589;SDS011;1809;48.470;9.226;2024-01-07T13:57:13;16.30;;;10.07;;
3589;SDS011;1809;48.470;9.226;2024-01-07T13:59:38;14.57;;;9.77;;
3589;SDS011;1809;48.470;9.226;2024-01-07T14:02:05;23.47;;;11.60;;
3589;SDS011;1809;48.470;9.226;2024-01-07T14:04:32;19.97;;;11.63;;
3589;SDS011;1809;48.470;9.226;2024-01-07T14:06:57;16.83;;;11.10;;
3589;SDS011;1809;48.470;9.226;2024-01-07T14:09:23;14.77;;;10.90;;
3589;SDS011;1809;48.470;9.226;2024-01-07T14:11:49;18.80;;;12.43;;
3589;SDS011;1809;48.470;9.226;2024-01-07T14:14:15;25.53;;;14.57;;
3589;SDS011;1809;48.470;9.226;2024-01-07T14:16:41;26.87;;;17.67;;
3589;SDS011;1809;48.470;9.226;2024-01-07T14:19:06;22.90;;;14.70;;
3589;SDS011;1809;48.470;9.226;2024-01-07T14:21:32;26.20;;;14.53;;
3589;SDS011;1809;48.470;9.226;2024-01-07T14:23:57;21.90;;;12.10;;
3589;SDS011;1809;48.470;9.226;2024-01-07T14:26:23;21.03;;;13.00;;
3589;SDS011;1809;48.470;9.226;2024-01-07T14:28:51;35.50;;;17.30;;
3589;SDS011;1809;48.470;9.226;2024-01-07T14:31:17;31.80;;;16.50;;
3589;SDS011;1809;48.470;9.226;2024-01-07T14:33:43;22.20;;;11.67;;
3589;SDS011;1809;48.470;9.226;2024-01-07T14:36:09;25.57;;;16.50;;
3589;SDS011;1809;48.470;9.226;2024-01-07T14:38:41;21.43;;;12.00;;
3589;SDS011;1809;48.470;9.226;2024-01-07T14:41:12;30.53;;;15.80;;
3589;SDS011;1809;48.470;9.226;2024-01-07T14:43:38;36.20;;;16.87;;
3589;SDS011;1809;48.470;9.226;2024-01-07T14:46:06;30.27;;;14.80;;
3589;SDS011;1809;48.470;9.226;2024-01-07T14:48:32;39.60;;;20.87;;
3589;SDS011;1809;48.470;9.226;2024-01-07T14:50:58;84.93;;;33.73;;
3589;SDS011;1809;48.470;9.226;2024-01-07T14:53:24;45.20;;;23.67;;